X  Sluiten METAR luchtvaart weer gegevens      EHAM Amsterdam Schiphol
Temperatuur
13°C Temperatuur
12°C Dauwpunt
94% Vochtigheid



Wind
2 KM/U
1 MPH
0 M/S
1 KTS



90°
Oosten
Huidig weer

Lichte Regen Lichte Regen
Luchtdruk 1016.92 (hPa) - 30.03 (inHg)
Zicht 5.6 (mijl) - 9 (km)
Vliegveld
Vliegveld code EHAM

Locatie : Amsterdam Schiphol
Afstand: 2 (km)

Metar:
EHAM 072155Z 09001KT 9000 -RA FEW010 SCT033 13/12 Q1017 TEMPO 7000

Tijd: 07-07-2020 23:55 CEST